createdAt,value
2022-12-18T00:01:07.346Z,89.42
2022-12-18T00:03:34.847Z,89.49
2022-12-18T00:06:01.675Z,89.59
2022-12-18T00:08:29.059Z,89.75
2022-12-18T00:10:56.114Z,90.04
2022-12-18T00:13:28.365Z,90.32
2022-12-18T00:15:56.721Z,90.24
2022-12-18T00:18:23.466Z,90.50
2022-12-18T00:20:50.063Z,90.37
2022-12-18T00:23:16.719Z,90.31
2022-12-18T00:25:43.331Z,90.53
2022-12-18T00:28:09.946Z,90.09
2022-12-18T00:30:36.660Z,89.82
2022-12-18T00:33:03.317Z,89.91
2022-12-18T00:35:29.957Z,89.74
2022-12-18T00:37:56.550Z,89.88
2022-12-18T00:40:23.163Z,89.73
2022-12-18T00:42:58.951Z,89.74
2022-12-18T00:45:30.818Z,89.97
2022-12-18T00:47:58.186Z,90.07
2022-12-18T00:50:26.630Z,89.51
2022-12-18T00:52:53.330Z,89.04
2022-12-18T00:55:19.954Z,88.93
2022-12-18T00:57:46.706Z,89.24
2022-12-18T01:00:16.098Z,89.35
2022-12-18T01:02:43.206Z,89.77
2022-12-18T01:05:12.256Z,90.04
2022-12-18T01:07:39.055Z,90.11
2022-12-18T01:10:06.635Z,89.88
2022-12-18T01:12:33.686Z,90.05
2022-12-18T01:15:00.421Z,90.42
2022-12-18T01:17:27.061Z,90.28
2022-12-18T01:19:54.514Z,90.05
2022-12-18T01:22:21.152Z,89.83
2022-12-18T01:24:47.703Z,90.10
2022-12-18T01:27:14.515Z,90.05
2022-12-18T01:29:41.112Z,89.91
2022-12-18T01:32:07.958Z,89.76
2022-12-18T01:34:36.104Z,89.33
2022-12-18T01:37:05.067Z,89.21
2022-12-18T01:39:33.036Z,88.36
2022-12-18T01:42:04.030Z,88.25
2022-12-18T01:44:52.288Z,88.15
2022-12-18T01:47:25.449Z,88.09
2022-12-18T01:49:52.650Z,88.21
2022-12-18T01:52:21.247Z,88.06
2022-12-18T01:54:49.961Z,88.24
2022-12-18T01:57:17.149Z,88.16
2022-12-18T01:59:46.396Z,88.34
2022-12-18T02:02:13.719Z,88.67
2022-12-18T02:04:49.156Z,89.15
2022-12-18T02:07:44.681Z,89.33
2022-12-18T02:10:14.091Z,89.28
2022-12-18T02:12:53.923Z,88.87
2022-12-18T02:15:29.853Z,88.22
2022-12-18T02:18:12.132Z,88.19
2022-12-18T02:20:54.591Z,88.23
2022-12-18T02:23:40.199Z,89.11
2022-12-18T02:26:07.245Z,89.08
2022-12-18T02:28:43.599Z,89.49
2022-12-18T02:31:15.383Z,88.90
2022-12-18T02:33:45.327Z,88.08
2022-12-18T02:36:14.541Z,88.48
2022-12-18T02:38:42.618Z,88.66
2022-12-18T02:41:09.311Z,88.92
2022-12-18T02:43:36.063Z,89.19
2022-12-18T02:46:31.097Z,88.79
2022-12-18T02:49:18.879Z,88.94
2022-12-18T02:51:56.505Z,89.11
2022-12-18T02:55:01.772Z,89.30
2022-12-18T02:57:30.961Z,88.74
2022-12-18T03:00:07.035Z,88.64
2022-12-18T03:02:58.411Z,88.59
2022-12-18T03:05:42.887Z,88.65
2022-12-18T03:08:22.869Z,88.70
2022-12-18T03:11:10.539Z,88.76
2022-12-18T03:13:44.662Z,88.79
2022-12-18T03:16:16.284Z,88.39
2022-12-18T03:19:03.812Z,88.47
2022-12-18T03:21:37.963Z,87.87
2022-12-18T03:24:08.684Z,87.94
2022-12-18T03:26:37.672Z,87.90
2022-12-18T03:29:10.137Z,86.61
2022-12-18T03:31:41.073Z,87.24
2022-12-18T03:34:16.251Z,87.24
2022-12-18T03:36:42.901Z,87.34
2022-12-18T03:39:09.605Z,87.42
2022-12-18T03:41:46.143Z,87.76
2022-12-18T03:44:14.965Z,88.57
2022-12-18T03:46:50.623Z,88.08
2022-12-18T03:49:38.689Z,88.43
2022-12-18T03:52:25.521Z,88.08
2022-12-18T03:54:54.341Z,88.08
2022-12-18T03:57:24.004Z,88.09
2022-12-18T03:59:56.377Z,88.04
2022-12-18T04:02:25.669Z,88.14
2022-12-18T04:04:54.832Z,88.28
2022-12-18T04:07:22.371Z,88.48
2022-12-18T04:09:52.139Z,88.70
2022-12-18T04:12:18.779Z,88.45
2022-12-18T04:14:45.918Z,88.88
2022-12-18T04:17:12.765Z,88.52
2022-12-18T04:19:39.631Z,88.71
2022-12-18T04:22:07.636Z,88.46
2022-12-18T04:24:34.247Z,88.23
2022-12-18T04:27:00.870Z,86.94
2022-12-18T04:29:27.403Z,85.61
2022-12-18T04:31:53.989Z,85.66
2022-12-18T04:34:20.849Z,84.70
2022-12-18T04:36:47.578Z,84.25
2022-12-18T04:39:14.724Z,84.68
2022-12-18T04:41:42.192Z,84.71
2022-12-18T04:44:08.890Z,84.71
2022-12-18T04:46:35.712Z,84.39
2022-12-18T04:49:02.483Z,84.72
2022-12-18T04:51:29.101Z,84.91
2022-12-18T04:53:55.788Z,84.93
2022-12-18T04:56:22.697Z,85.30
2022-12-18T04:58:50.020Z,85.25
2022-12-18T05:01:18.670Z,84.72
2022-12-18T05:03:45.703Z,84.90
2022-12-18T05:06:12.546Z,84.70
2022-12-18T05:08:39.345Z,84.96
2022-12-18T05:11:11.743Z,85.02
2022-12-18T05:13:39.405Z,84.51
2022-12-18T05:16:07.327Z,84.15
2022-12-18T05:18:34.289Z,84.36
2022-12-18T05:21:01.350Z,84.61
2022-12-18T05:23:28.698Z,84.68
2022-12-18T05:25:58.691Z,85.31
2022-12-18T05:28:27.437Z,85.30
2022-12-18T05:30:56.641Z,85.17
2022-12-18T05:33:25.554Z,85.06
2022-12-18T05:35:57.240Z,84.85
2022-12-18T05:38:25.513Z,84.66
2022-12-18T05:40:52.881Z,84.06
2022-12-18T05:43:21.506Z,84.36
2022-12-18T05:45:49.286Z,84.23
2022-12-18T05:48:16.561Z,84.22
2022-12-18T05:50:46.557Z,84.53
2022-12-18T05:53:14.146Z,84.46
2022-12-18T05:55:42.513Z,84.50
2022-12-18T05:58:10.795Z,84.18
2022-12-18T06:00:42.331Z,83.90
2022-12-18T06:03:10.674Z,83.96
2022-12-18T06:05:45.533Z,84.12
2022-12-18T06:08:14.216Z,83.90
2022-12-18T06:10:42.103Z,84.02
2022-12-18T06:13:09.043Z,84.41
2022-12-18T06:15:39.975Z,84.73
2022-12-18T06:18:06.718Z,84.10
2022-12-18T06:20:34.216Z,84.33
2022-12-18T06:23:01.282Z,84.18
2022-12-18T06:25:28.170Z,84.16
2022-12-18T06:27:55.146Z,83.12
2022-12-18T06:30:21.770Z,82.70
2022-12-18T06:32:54.623Z,82.76
2022-12-18T06:35:23.395Z,82.92
2022-12-18T06:37:50.075Z,82.99
2022-12-18T06:40:17.326Z,83.25
2022-12-18T06:42:43.950Z,80.60
2022-12-18T06:45:10.927Z,81.25
2022-12-18T06:47:37.541Z,79.93
2022-12-18T06:50:04.505Z,79.60
2022-12-18T06:52:33.162Z,79.87
2022-12-18T06:54:59.853Z,79.57
2022-12-18T06:57:26.500Z,80.17
2022-12-18T06:59:53.576Z,80.38
2022-12-18T07:02:20.281Z,78.78
2022-12-18T07:04:46.860Z,79.39
2022-12-18T07:07:13.490Z,78.63
2022-12-18T07:09:40.040Z,78.80
2022-12-18T07:12:07.907Z,78.85
2022-12-18T07:14:35.288Z,78.34
2022-12-18T07:17:03.055Z,78.52
2022-12-18T07:19:30.746Z,78.93
2022-12-18T07:21:57.856Z,78.63
2022-12-18T07:24:24.723Z,78.86
2022-12-18T07:26:51.333Z,78.91
2022-12-18T07:29:17.954Z,79.19
2022-12-18T07:31:45.124Z,78.50
2022-12-18T07:34:14.160Z,78.73
2022-12-18T07:36:44.227Z,78.44
2022-12-18T07:39:12.343Z,78.62
2022-12-18T07:41:43.756Z,78.75
2022-12-18T07:44:14.199Z,78.56
2022-12-18T07:46:41.503Z,78.38
2022-12-18T07:49:08.168Z,77.93
2022-12-18T07:51:34.758Z,78.30
2022-12-18T07:54:01.391Z,78.11
2022-12-18T07:56:29.420Z,78.23
2022-12-18T07:58:58.109Z,76.71
2022-12-18T08:01:25.411Z,77.01
2022-12-18T08:03:55.169Z,77.39
2022-12-18T08:06:22.756Z,77.78
2022-12-18T08:08:55.510Z,77.74
2022-12-18T08:11:24.188Z,77.27
2022-12-18T08:13:53.774Z,77.62
2022-12-18T08:16:21.005Z,77.48
2022-12-18T08:18:48.344Z,77.00
2022-12-18T08:21:23.871Z,76.63
2022-12-18T08:23:51.685Z,76.01
2022-12-18T08:26:18.871Z,77.50
2022-12-18T08:28:46.064Z,77.33
2022-12-18T08:31:12.796Z,76.86
2022-12-18T08:33:40.720Z,76.76
2022-12-18T08:36:10.148Z,76.57
2022-12-18T08:38:37.195Z,76.85
2022-12-18T08:41:06.940Z,76.66
2022-12-18T08:43:52.136Z,76.94
2022-12-18T08:46:19.738Z,76.73
2022-12-18T08:48:47.009Z,76.55
2022-12-18T08:51:14.029Z,76.97
2022-12-18T08:53:41.195Z,76.89
2022-12-18T08:56:08.659Z,76.60
2022-12-18T08:58:35.271Z,75.91
2022-12-18T09:01:03.193Z,75.94
2022-12-18T09:03:30.270Z,75.44
2022-12-18T09:05:57.200Z,74.77
2022-12-18T09:08:23.890Z,75.92
2022-12-18T09:10:51.457Z,75.46
2022-12-18T09:13:19.435Z,75.47
2022-12-18T09:15:49.006Z,75.40
2022-12-18T09:18:17.447Z,75.67
2022-12-18T09:20:44.708Z,75.69
2022-12-18T09:23:12.295Z,75.83
2022-12-18T09:25:39.848Z,75.39
2022-12-18T09:28:11.366Z,74.31
2022-12-18T09:30:39.931Z,74.73
2022-12-18T09:33:06.846Z,75.27
2022-12-18T09:35:40.573Z,75.59
2022-12-18T09:38:08.009Z,73.91
2022-12-18T09:40:40.722Z,73.36
2022-12-18T09:43:11.835Z,73.15
2022-12-18T09:45:50.493Z,73.10
2022-12-18T09:48:24.845Z,73.18
2022-12-18T09:50:53.448Z,73.53
2022-12-18T09:53:28.986Z,73.17
2022-12-18T09:55:57.472Z,72.86
2022-12-18T09:58:43.538Z,72.54
2022-12-18T10:01:24.186Z,73.42
2022-12-18T10:03:52.608Z,73.76
2022-12-18T10:06:28.153Z,72.82
2022-12-18T10:09:06.229Z,73.34
2022-12-18T10:12:09.549Z,73.84
2022-12-18T10:15:14.690Z,73.51
2022-12-18T10:18:07.891Z,74.05
2022-12-18T10:20:42.439Z,73.79
2022-12-18T10:23:41.391Z,73.90
2022-12-18T10:26:13.078Z,73.90
2022-12-18T10:28:42.283Z,74.09
2022-12-18T10:31:18.129Z,74.00
2022-12-18T10:33:44.953Z,73.35
2022-12-18T10:36:12.386Z,73.80
2022-12-18T10:38:39.729Z,73.59
2022-12-18T10:41:26.966Z,73.44
2022-12-18T10:44:16.954Z,73.04
2022-12-18T10:46:49.038Z,72.92
2022-12-18T10:49:28.335Z,72.93
2022-12-18T10:52:17.169Z,72.96
2022-12-18T10:55:05.306Z,72.65
2022-12-18T10:57:42.648Z,72.53
2022-12-18T11:00:30.579Z,72.65
2022-12-18T11:02:57.867Z,72.61
2022-12-18T11:05:33.396Z,72.77
2022-12-18T11:08:00.846Z,72.60
2022-12-18T11:10:34.597Z,72.81
2022-12-18T11:13:25.932Z,73.27
2022-12-18T11:15:53.216Z,73.87
2022-12-18T11:18:35.607Z,73.88
2022-12-18T11:21:16.587Z,74.21
2022-12-18T11:23:53.772Z,74.37
2022-12-18T11:26:21.281Z,73.89
2022-12-18T11:28:53.150Z,74.14
2022-12-18T11:31:26.404Z,74.24
2022-12-18T11:34:27.652Z,74.25
2022-12-18T11:36:47.589Z,74.89
2022-12-18T11:39:46.085Z,74.42
2022-12-18T11:42:21.181Z,74.27
2022-12-18T11:45:13.794Z,73.61
2022-12-18T11:47:50.133Z,73.11
2022-12-18T11:50:38.426Z,72.89
2022-12-18T11:53:06.409Z,72.50
2022-12-18T11:55:51.374Z,72.68
2022-12-18T11:58:29.367Z,72.90
2022-12-18T12:01:08.166Z,72.59
2022-12-18T12:03:46.916Z,72.30
2022-12-18T12:06:23.531Z,72.54
2022-12-18T12:09:35.095Z,72.48
2022-12-18T12:12:23.168Z,72.58
2022-12-18T12:15:14.127Z,72.52
2022-12-18T12:17:51.380Z,72.22
2022-12-18T12:20:34.765Z,72.01
2022-12-18T12:23:27.703Z,71.95
2022-12-18T12:26:05.082Z,71.96
2022-12-18T12:29:10.898Z,72.22
2022-12-18T12:31:59.021Z,72.64
2022-12-18T12:34:48.776Z,71.92
2022-12-18T12:37:21.284Z,70.94
2022-12-18T12:39:53.219Z,71.01
2022-12-18T12:43:04.525Z,70.86
2022-12-18T12:45:48.686Z,71.10
2022-12-18T12:48:24.173Z,71.29
2022-12-18T12:50:51.469Z,72.01
2022-12-18T12:53:30.500Z,72.12
2022-12-18T12:55:58.614Z,71.11
2022-12-18T12:58:43.435Z,71.45
2022-12-18T13:01:28.525Z,71.46
2022-12-18T13:04:02.170Z,71.38
2022-12-18T13:06:31.527Z,70.96
2022-12-18T13:09:00.324Z,71.30
2022-12-18T13:12:06.790Z,71.57
2022-12-18T13:14:39.898Z,71.98
2022-12-18T13:17:16.873Z,72.17
2022-12-18T13:19:44.281Z,72.32
2022-12-18T13:22:29.712Z,72.55
2022-12-18T13:24:56.432Z,72.22
2022-12-18T13:27:46.936Z,71.94
2022-12-18T13:30:32.493Z,72.40
2022-12-18T13:33:19.384Z,71.78
2022-12-18T13:35:49.017Z,71.83
2022-12-18T13:38:38.210Z,72.30
2022-12-18T13:41:19.944Z,71.82
2022-12-18T13:43:52.727Z,71.98
2022-12-18T13:46:25.437Z,72.44
2022-12-18T13:49:13.739Z,72.54
2022-12-18T13:52:00.545Z,72.85
2022-12-18T13:54:40.071Z,72.62
2022-12-18T13:57:33.971Z,72.42
2022-12-18T14:00:18.201Z,72.25
2022-12-18T14:02:46.747Z,72.46
2022-12-18T14:05:45.771Z,72.61
2022-12-18T14:08:17.751Z,72.54
2022-12-18T14:10:49.038Z,72.67
2022-12-18T14:13:22.387Z,72.26
2022-12-18T14:15:50.238Z,72.21
2022-12-18T14:18:24.744Z,72.21
2022-12-18T14:20:53.324Z,72.54
2022-12-18T14:23:32.327Z,72.57
2022-12-18T14:26:05.349Z,72.56
2022-12-18T14:28:33.092Z,72.83
2022-12-18T14:30:59.965Z,72.47
2022-12-18T14:33:28.860Z,72.71
2022-12-18T14:35:58.959Z,72.81
2022-12-18T14:38:37.460Z,73.10
2022-12-18T14:41:10.492Z,73.40
2022-12-18T14:43:39.292Z,73.48
2022-12-18T14:46:26.903Z,74.04
2022-12-18T14:48:54.557Z,74.02
2022-12-18T14:51:23.881Z,74.21
2022-12-18T14:53:55.668Z,74.07
2022-12-18T14:56:34.862Z,73.96
2022-12-18T15:02:23.218Z,74.18
2022-12-18T15:05:21.673Z,73.95
2022-12-18T15:07:55.338Z,74.28
2022-12-18T15:10:24.872Z,74.56
2022-12-18T15:12:57.693Z,74.77
2022-12-18T15:15:40.665Z,75.38
2022-12-18T15:18:13.426Z,75.28
2022-12-18T15:21:08.043Z,75.53
2022-12-18T15:23:37.860Z,75.30
2022-12-18T15:26:07.336Z,75.77
2022-12-18T15:28:57.114Z,76.08
2022-12-18T15:31:25.565Z,76.12
2022-12-18T15:33:55.238Z,76.06
2022-12-18T15:36:26.801Z,75.86
2022-12-18T15:38:56.183Z,75.63
2022-12-18T15:41:35.257Z,75.72
2022-12-18T15:44:03.350Z,76.06
2022-12-18T15:46:31.877Z,75.89
2022-12-18T15:49:02.388Z,76.19
2022-12-18T15:51:34.508Z,76.30
2022-12-18T15:54:04.973Z,76.04
2022-12-18T15:56:57.052Z,76.10
2022-12-18T15:59:24.806Z,75.73
2022-12-18T16:01:54.193Z,75.96
2022-12-18T16:04:22.571Z,76.19
2022-12-18T16:09:37.965Z,76.56
2022-12-18T16:12:05.668Z,76.54
2022-12-18T16:14:32.981Z,76.70
2022-12-18T16:17:02.187Z,76.52
2022-12-18T16:19:29.879Z,76.64
2022-12-18T16:21:59.444Z,76.85
2022-12-18T16:24:31.509Z,77.19
2022-12-18T16:27:00.376Z,77.25
2022-12-18T16:29:29.303Z,76.98
2022-12-18T16:32:00.252Z,77.00
2022-12-18T16:34:29.554Z,77.04
2022-12-18T16:37:04.847Z,76.99
2022-12-18T16:39:33.016Z,77.41
2022-12-18T16:42:00.097Z,77.51
2022-12-18T16:44:31.715Z,77.61
2022-12-18T16:47:02.920Z,77.87
2022-12-18T16:49:30.423Z,78.15
2022-12-18T16:51:59.529Z,77.84
2022-12-18T16:54:26.276Z,78.06
2022-12-18T16:56:52.962Z,78.12
2022-12-18T16:59:19.910Z,77.96
2022-12-18T17:01:47.308Z,78.38
2022-12-18T17:04:14.736Z,78.12
2022-12-18T17:06:44.080Z,78.25
2022-12-18T17:09:16.471Z,78.36
2022-12-18T17:11:43.854Z,78.13
2022-12-18T17:14:33.699Z,77.95
2022-12-18T17:19:47.956Z,77.50
2022-12-18T17:22:14.582Z,77.63
2022-12-18T17:24:41.142Z,77.82
2022-12-18T17:27:08.942Z,77.50
2022-12-18T17:29:35.735Z,77.38
2022-12-18T17:32:02.305Z,77.63
2022-12-18T17:34:30.075Z,77.48
2022-12-18T17:36:57.484Z,77.40
2022-12-18T17:39:24.172Z,77.54
2022-12-18T17:41:50.823Z,77.39
2022-12-18T17:44:18.591Z,77.14
2022-12-18T17:46:46.243Z,76.53
2022-12-18T17:49:14.153Z,76.68
2022-12-18T17:51:43.071Z,76.84
2022-12-18T17:54:10.225Z,76.87
2022-12-18T17:56:37.232Z,76.80
2022-12-18T17:59:04.323Z,76.65
2022-12-18T18:01:32.506Z,76.82
2022-12-18T18:04:00.751Z,76.68
2022-12-18T18:06:27.838Z,76.17
2022-12-18T18:08:54.908Z,76.30
2022-12-18T18:11:41.981Z,76.20
2022-12-18T18:14:14.777Z,76.48
2022-12-18T18:16:44.155Z,76.00
2022-12-18T18:19:18.511Z,76.08
2022-12-18T18:21:47.263Z,75.99
2022-12-18T18:24:16.793Z,75.51
2022-12-18T18:26:44.032Z,75.90
2022-12-18T18:29:19.678Z,75.52
2022-12-18T18:31:46.852Z,75.46
2022-12-18T18:34:20.253Z,75.15
2022-12-18T18:36:46.895Z,74.82
2022-12-18T18:39:14.077Z,74.57
2022-12-18T18:41:41.132Z,74.39
2022-12-18T18:44:11.989Z,74.80
2022-12-18T18:46:38.708Z,75.21
2022-12-18T18:49:05.752Z,74.79
2022-12-18T18:51:35.099Z,75.11
2022-12-18T18:54:02.512Z,74.88
2022-12-18T18:59:16.377Z,75.06
2022-12-18T19:01:43.318Z,75.15
2022-12-18T19:04:10.388Z,75.22
2022-12-18T19:06:37.068Z,75.15
2022-12-18T19:09:05.094Z,74.89
2022-12-18T19:11:50.392Z,75.01
2022-12-18T19:14:17.129Z,74.17
2022-12-18T19:16:45.518Z,73.97
2022-12-18T19:19:13.048Z,74.25
2022-12-18T19:21:39.939Z,73.89
2022-12-18T19:24:06.883Z,74.03
2022-12-18T19:26:33.553Z,74.09
2022-12-18T19:29:08.711Z,73.85
2022-12-18T19:31:37.162Z,74.15
2022-12-18T19:34:08.120Z,73.87
2022-12-18T19:36:37.268Z,73.36
2022-12-18T19:39:12.412Z,73.46
2022-12-18T19:41:42.641Z,73.39
2022-12-18T19:44:12.382Z,73.16
2022-12-18T19:46:41.706Z,73.36
2022-12-18T19:49:10.544Z,72.50
2022-12-18T19:51:41.224Z,72.98
2022-12-18T19:54:10.029Z,72.69
2022-12-18T19:56:40.072Z,71.96
2022-12-18T19:59:06.731Z,72.34
2022-12-18T20:01:33.687Z,72.26
2022-12-18T20:04:02.948Z,72.34
2022-12-18T20:06:45.347Z,72.62
2022-12-18T20:09:12.206Z,72.40
2022-12-18T20:11:41.702Z,72.44
2022-12-18T20:14:12.762Z,72.33
2022-12-18T20:16:39.721Z,72.67
2022-12-18T20:19:07.350Z,72.57
2022-12-18T20:21:34.691Z,72.39
2022-12-18T20:24:02.252Z,72.37
2022-12-18T20:26:29.458Z,72.31
2022-12-18T20:28:56.675Z,72.78
2022-12-18T20:31:23.912Z,72.82
2022-12-18T20:33:51.016Z,72.76
2022-12-18T20:36:22.624Z,73.09
2022-12-18T20:39:00.500Z,73.40
2022-12-18T20:41:37.719Z,73.55
2022-12-18T20:44:53.695Z,74.04
2022-12-18T20:47:24.938Z,75.01
2022-12-18T20:49:54.864Z,75.24
2022-12-18T20:52:22.065Z,75.46
2022-12-18T20:54:50.385Z,75.80
2022-12-18T20:57:16.986Z,76.19
2022-12-18T20:59:48.064Z,76.52
2022-12-18T21:02:15.252Z,76.98
2022-12-18T21:04:42.104Z,77.34
2022-12-18T21:07:08.782Z,77.78
2022-12-18T21:09:37.451Z,78.00
2022-12-18T21:12:25.318Z,78.16
2022-12-18T21:14:51.927Z,78.33
2022-12-18T21:17:18.552Z,78.79
2022-12-18T21:19:45.139Z,78.51
2022-12-18T21:22:12.866Z,78.83
2022-12-18T21:24:40.246Z,78.80
2022-12-18T21:27:06.885Z,78.97
2022-12-18T21:29:34.983Z,78.96
2022-12-18T21:32:02.415Z,79.16
2022-12-18T21:34:30.457Z,79.02
2022-12-18T21:36:59.338Z,78.88
2022-12-18T21:39:27.450Z,78.75
2022-12-18T21:42:22.982Z,78.63
2022-12-18T21:44:52.414Z,78.70
2022-12-18T21:47:22.620Z,78.61
2022-12-18T21:49:53.392Z,78.86
2022-12-18T21:52:31.481Z,78.73
2022-12-18T21:55:06.190Z,78.67
2022-12-18T21:57:34.908Z,79.45
2022-12-18T22:00:02.273Z,79.74
2022-12-18T22:02:29.232Z,79.78
2022-12-18T22:04:55.977Z,79.92
2022-12-18T22:07:23.227Z,79.94
2022-12-18T22:09:51.111Z,80.01
2022-12-18T22:12:35.623Z,80.30
2022-12-18T22:15:04.974Z,80.25
2022-12-18T22:17:31.569Z,80.34
2022-12-18T22:19:58.350Z,80.41
2022-12-18T22:22:24.975Z,80.32
2022-12-18T22:24:51.677Z,80.54
2022-12-18T22:27:18.261Z,80.39
2022-12-18T22:30:03.716Z,80.42
2022-12-18T22:32:31.841Z,80.56
2022-12-18T22:35:07.918Z,80.80
2022-12-18T22:37:37.304Z,81.16
2022-12-18T22:40:06.091Z,80.92
2022-12-18T22:42:34.190Z,81.06
2022-12-18T22:45:00.851Z,81.32
2022-12-18T22:47:30.165Z,81.25
2022-12-18T22:49:57.774Z,81.38
2022-12-18T22:52:24.767Z,81.26
2022-12-18T22:54:53.394Z,81.21
2022-12-18T22:57:21.777Z,81.22
2022-12-18T22:59:49.353Z,81.39
2022-12-18T23:02:17.817Z,81.31
2022-12-18T23:04:45.081Z,81.47
2022-12-18T23:07:12.489Z,81.40
2022-12-18T23:09:39.964Z,81.20
2022-12-18T23:12:07.315Z,81.18
2022-12-18T23:14:33.998Z,81.10
2022-12-18T23:17:00.651Z,81.28
2022-12-18T23:19:27.203Z,81.25
2022-12-18T23:21:54.858Z,81.28
2022-12-18T23:24:27.251Z,81.48
2022-12-18T23:26:55.538Z,81.50
2022-12-18T23:29:22.193Z,81.83
2022-12-18T23:31:49.048Z,82.06
2022-12-18T23:34:15.666Z,82.29
2022-12-18T23:36:45.487Z,82.29
2022-12-18T23:39:15.473Z,82.56
2022-12-18T23:41:58.002Z,82.50
2022-12-18T23:44:24.936Z,82.60
2022-12-18T23:46:51.615Z,82.66
2022-12-18T23:49:18.528Z,82.97
2022-12-18T23:51:45.134Z,83.05
2022-12-18T23:54:11.757Z,83.10
2022-12-18T23:56:38.406Z,83.18
2022-12-18T23:59:05.169Z,83.59
